createdAt,value
2022-09-26T00:01:38.377Z,19.02
2022-09-26T00:04:22.750Z,22.20
2022-09-26T00:06:52.586Z,19.98
2022-09-26T00:09:21.587Z,20.90
2022-09-26T00:11:50.369Z,18.23
2022-09-26T00:14:39.863Z,20.65
2022-09-26T00:17:07.246Z,22.65
2022-09-26T00:19:34.528Z,18.75
2022-09-26T00:22:01.864Z,20.75
2022-09-26T00:24:29.700Z,20.10
2022-09-26T00:26:57.067Z,19.67
2022-09-26T00:29:24.441Z,24.38
2022-09-26T00:32:11.848Z,17.65
2022-09-26T00:34:42.494Z,19.33
2022-09-26T00:37:09.838Z,19.27
2022-09-26T00:39:37.170Z,20.92
2022-09-26T00:42:04.516Z,17.13
2022-09-26T00:45:05.489Z,19.10
2022-09-26T00:47:47.127Z,21.98
2022-09-26T00:50:41.155Z,17.70
2022-09-26T00:53:33.337Z,21.73
2022-09-26T00:56:12.125Z,20.65
2022-09-26T00:59:03.169Z,18.92
2022-09-26T01:01:30.813Z,17.02
2022-09-26T01:03:59.136Z,15.65
2022-09-26T01:06:28.030Z,18.38
2022-09-26T01:09:08.638Z,21.77
2022-09-26T01:11:37.338Z,17.83
2022-09-26T01:14:10.462Z,18.48
2022-09-26T01:16:39.614Z,21.48
2022-09-26T01:19:22.618Z,20.52
2022-09-26T01:22:14.314Z,19.58
2022-09-26T01:25:09.812Z,19.83
2022-09-26T01:28:01.433Z,21.35
2022-09-26T01:30:41.726Z,25.95
2022-09-26T01:33:30.159Z,17.45
2022-09-26T01:36:22.916Z,21.75
2022-09-26T01:39:10.021Z,19.88
2022-09-26T01:42:06.605Z,19.23
2022-09-26T01:45:10.205Z,19.27
2022-09-26T01:47:50.278Z,21.02
2022-09-26T01:50:41.366Z,23.90
2022-09-26T01:53:19.701Z,24.30
2022-09-26T01:55:59.895Z,21.33
2022-09-26T01:59:14.210Z,23.15
2022-09-26T02:01:57.152Z,22.33
2022-09-26T02:04:46.904Z,25.20
2022-09-26T02:07:26.449Z,23.40
2022-09-26T02:10:16.705Z,25.50
2022-09-26T02:12:49.611Z,24.77
2022-09-26T02:15:20.479Z,26.05
2022-09-26T02:17:53.381Z,25.83
2022-09-26T02:20:41.597Z,22.13
2022-09-26T02:23:09.643Z,26.92
2022-09-26T02:25:37.891Z,25.05
2022-09-26T02:28:05.518Z,27.65
2022-09-26T02:30:33.214Z,23.10
2022-09-26T02:33:01.319Z,23.05
2022-09-26T02:35:47.790Z,23.55
2022-09-26T02:38:17.449Z,21.52
2022-09-26T02:41:00.197Z,21.10
2022-09-26T02:44:00.702Z,23.90
2022-09-26T02:46:55.558Z,22.63
2022-09-26T02:49:55.515Z,23.02
2022-09-26T02:52:37.594Z,22.42
2022-09-26T02:55:37.702Z,23.75
2022-09-26T02:58:35.968Z,25.30
2022-09-26T03:01:17.942Z,25.02
2022-09-26T03:03:55.859Z,24.95
2022-09-26T03:06:36.086Z,25.45
2022-09-26T03:09:09.712Z,23.05
2022-09-26T03:11:37.954Z,23.73
2022-09-26T03:14:07.881Z,24.73
2022-09-26T03:16:46.593Z,24.25
2022-09-26T03:19:29.912Z,23.83
2022-09-26T03:22:03.959Z,25.38
2022-09-26T03:24:33.703Z,26.77
2022-09-26T03:27:05.846Z,26.48
2022-09-26T03:29:40.035Z,27.67
2022-09-26T03:32:19.151Z,25.77
2022-09-26T03:34:46.445Z,31.15
2022-09-26T03:37:14.121Z,26.65
2022-09-26T03:39:41.497Z,27.85
2022-09-26T03:42:16.709Z,21.40
2022-09-26T03:44:46.605Z,23.70
2022-09-26T03:47:15.313Z,23.30
2022-09-26T03:49:44.811Z,24.88
2022-09-26T03:52:13.848Z,26.67
2022-09-26T03:54:42.983Z,25.42
2022-09-26T03:57:12.875Z,24.30
2022-09-26T03:59:46.973Z,26.83
2022-09-26T04:02:14.741Z,26.00
2022-09-26T04:04:46.252Z,25.90
2022-09-26T04:07:15.660Z,25.00
2022-09-26T04:09:48.864Z,29.23
2022-09-26T04:12:22.738Z,31.02
2022-09-26T04:14:50.118Z,24.30
2022-09-26T04:17:18.837Z,27.00
2022-09-26T04:22:18.951Z,25.17
2022-09-26T04:24:46.305Z,24.45
2022-09-26T04:27:15.294Z,26.33
2022-09-26T04:29:45.417Z,24.98
2022-09-26T04:32:27.031Z,31.90
2022-09-26T04:35:20.182Z,28.67
2022-09-26T04:37:47.599Z,32.00
2022-09-26T04:40:19.041Z,29.48
2022-09-26T04:42:58.993Z,32.50
2022-09-26T04:45:28.407Z,31.40
2022-09-26T04:47:55.987Z,33.05
2022-09-26T04:50:26.363Z,31.40
2022-09-26T04:53:09.452Z,26.50
2022-09-26T04:56:28.060Z,29.98
2022-09-26T04:58:57.785Z,28.23
2022-09-26T05:01:27.961Z,33.03
2022-09-26T05:04:12.925Z,30.88
2022-09-26T05:06:40.324Z,29.67
2022-09-26T05:09:17.382Z,31.20
2022-09-26T05:11:52.593Z,30.73
2022-09-26T05:14:19.957Z,29.30
2022-09-26T05:16:48.669Z,36.08
2022-09-26T05:19:18.203Z,28.35
2022-09-26T05:22:12.418Z,29.88
2022-09-26T05:24:59.390Z,30.70
2022-09-26T05:27:26.663Z,28.35
2022-09-26T05:29:55.874Z,31.85
2022-09-26T05:32:24.021Z,30.35
2022-09-26T05:34:52.134Z,73.70
2022-09-26T05:37:23.568Z,33.47
2022-09-26T05:40:09.599Z,32.95
2022-09-26T05:42:48.945Z,33.67
2022-09-26T05:45:16.293Z,31.05
2022-09-26T05:47:44.398Z,31.92
2022-09-26T05:50:12.247Z,33.88
2022-09-26T05:52:40.738Z,31.88
2022-09-26T05:55:34.976Z,30.83
2022-09-26T05:58:39.340Z,31.10
2022-09-26T06:01:23.423Z,29.30
2022-09-26T06:04:04.021Z,27.42
2022-09-26T06:06:51.314Z,27.00
2022-09-26T06:09:18.699Z,30.38
2022-09-26T06:12:04.889Z,29.52
2022-09-26T06:14:32.175Z,31.15
2022-09-26T06:16:59.478Z,29.98
2022-09-26T06:19:27.084Z,30.65
2022-09-26T06:21:54.410Z,24.95
2022-09-26T06:24:22.839Z,28.10
2022-09-26T06:29:22.521Z,28.52
2022-09-26T06:31:50.529Z,27.88
2022-09-26T06:34:35.835Z,27.85
2022-09-26T06:37:38.528Z,31.48
2022-09-26T06:40:24.226Z,32.35
2022-09-26T06:42:51.605Z,32.75
2022-09-26T06:45:29.854Z,29.08
2022-09-26T06:48:26.378Z,27.00
2022-09-26T06:51:00.289Z,32.10
2022-09-26T06:53:30.848Z,32.38
2022-09-26T06:55:59.896Z,29.63
2022-09-26T06:58:49.607Z,35.80
2022-09-26T07:01:18.509Z,27.52
2022-09-26T07:04:11.232Z,30.42
2022-09-26T07:06:44.610Z,28.60
2022-09-26T07:09:13.037Z,29.55
2022-09-26T07:12:12.942Z,29.60
2022-09-26T07:14:37.600Z,31.77
2022-09-26T07:17:18.501Z,29.13
2022-09-26T07:20:04.986Z,29.63
2022-09-26T07:22:50.729Z,30.98
2022-09-26T07:25:18.194Z,32.05
2022-09-26T07:27:50.608Z,32.28
2022-09-26T07:30:20.569Z,32.30
2022-09-26T07:33:05.908Z,31.50
2022-09-26T07:35:44.446Z,31.85
2022-09-26T07:38:13.174Z,31.35
2022-09-26T07:40:42.917Z,33.00
2022-09-26T07:43:19.967Z,36.85
2022-09-26T07:46:12.356Z,32.53
2022-09-26T07:49:03.439Z,34.15
2022-09-26T07:52:05.984Z,32.33
2022-09-26T07:54:46.003Z,30.50
2022-09-26T07:57:34.582Z,38.47
2022-09-26T08:00:22.951Z,34.10
2022-09-26T08:03:17.179Z,32.22
2022-09-26T08:05:44.790Z,31.33
2022-09-26T08:08:12.121Z,37.70
2022-09-26T08:11:03.503Z,32.30
2022-09-26T08:13:48.002Z,30.73
2022-09-26T08:16:24.384Z,31.80
2022-09-26T08:18:55.201Z,33.35
2022-09-26T08:21:24.828Z,26.92
2022-09-26T08:23:56.132Z,27.30
2022-09-26T08:26:32.403Z,24.38
2022-09-26T08:29:19.624Z,24.50
2022-09-26T08:31:51.613Z,26.58
2022-09-26T08:34:25.347Z,24.70
2022-09-26T08:37:26.276Z,20.25
2022-09-26T08:40:12.665Z,21.42
2022-09-26T08:43:34.517Z,18.55
2022-09-26T08:47:03.982Z,17.15
2022-09-26T08:50:17.310Z,22.23
2022-09-26T08:53:10.467Z,17.45
2022-09-26T08:55:46.866Z,20.30
2022-09-26T08:58:29.208Z,19.35
2022-09-26T09:01:19.232Z,18.17
2022-09-26T09:04:15.723Z,15.00
2022-09-26T09:06:43.756Z,19.52
2022-09-26T09:09:29.474Z,15.52
2022-09-26T09:12:32.622Z,19.90
2022-09-26T09:15:45.424Z,24.42
2022-09-26T09:18:29.337Z,17.10
2022-09-26T09:21:53.067Z,19.67
2022-09-26T09:25:01.489Z,19.80
2022-09-26T09:27:55.159Z,16.83
2022-09-26T09:30:40.924Z,15.52
2022-09-26T09:33:39.424Z,13.93
2022-09-26T09:36:28.517Z,11.30
2022-09-26T09:39:34.573Z,13.52
2022-09-26T09:42:43.402Z,13.50
2022-09-26T09:45:35.951Z,13.20
2022-09-26T09:48:04.545Z,13.77
2022-09-26T09:50:40.933Z,11.45
2022-09-26T09:53:46.736Z,12.80
2022-09-26T09:56:40.134Z,10.88
2022-09-26T09:59:15.873Z,13.80
2022-09-26T10:02:09.814Z,10.23
2022-09-26T10:04:51.458Z,13.40
2022-09-26T10:07:19.061Z,11.32
2022-09-26T10:10:10.714Z,10.15
2022-09-26T10:12:59.720Z,11.70
2022-09-26T10:16:01.421Z,12.75
2022-09-26T10:19:04.197Z,13.38
2022-09-26T10:21:42.490Z,8.70
2022-09-26T10:24:43.541Z,8.82
2022-09-26T10:27:22.576Z,10.45
2022-09-26T10:30:01.302Z,9.02
2022-09-26T10:32:29.636Z,9.50
2022-09-26T10:35:26.441Z,7.32
2022-09-26T10:38:18.900Z,11.15
2022-09-26T10:40:55.177Z,9.50
2022-09-26T10:43:31.221Z,9.35
2022-09-26T10:46:16.857Z,8.50
2022-09-26T10:49:04.115Z,8.18
2022-09-26T10:52:02.999Z,7.63
2022-09-26T10:54:45.745Z,8.80
2022-09-26T10:57:30.704Z,9.07
2022-09-26T11:00:07.128Z,6.75
2022-09-26T11:02:36.443Z,7.35
2022-09-26T11:05:34.989Z,5.80
2022-09-26T11:08:14.174Z,9.55
2022-09-26T11:11:16.833Z,8.98
2022-09-26T11:14:08.420Z,6.15
2022-09-26T11:16:48.784Z,8.38
2022-09-26T11:19:42.593Z,6.65
2022-09-26T11:22:32.999Z,5.25
2022-09-26T11:25:31.742Z,7.57
2022-09-26T11:28:07.449Z,7.15
2022-09-26T11:31:28.369Z,5.47
2022-09-26T11:34:23.870Z,7.88
2022-09-26T11:37:30.081Z,7.63
2022-09-26T11:40:21.429Z,6.30
2022-09-26T11:42:56.010Z,7.72
2022-09-26T11:46:03.654Z,5.90
2022-09-26T11:49:21.970Z,9.80
2022-09-26T11:52:36.404Z,7.20
2022-09-26T11:55:17.804Z,7.65
2022-09-26T11:58:15.555Z,8.25
2022-09-26T12:00:57.970Z,6.38
2022-09-26T12:04:01.683Z,8.50
2022-09-26T12:06:50.897Z,7.88
2022-09-26T12:09:58.181Z,8.30
2022-09-26T12:12:52.114Z,7.03
2022-09-26T12:15:52.886Z,5.53
2022-09-26T12:18:50.714Z,6.03
2022-09-26T12:22:16.230Z,8.60
2022-09-26T12:24:58.251Z,8.85
2022-09-26T12:27:50.728Z,7.78
2022-09-26T12:30:55.860Z,10.75
2022-09-26T12:33:39.978Z,8.00
2022-09-26T12:36:51.305Z,8.13
2022-09-26T12:39:31.670Z,8.98
2022-09-26T12:42:31.188Z,10.32
2022-09-26T12:45:17.878Z,9.77
2022-09-26T12:48:19.745Z,9.00
2022-09-26T12:51:08.894Z,8.45
2022-09-26T12:53:54.744Z,7.32
2022-09-26T12:56:45.345Z,13.40
2022-09-26T12:59:47.537Z,9.50
2022-09-26T13:02:27.815Z,8.55
2022-09-26T13:05:32.443Z,10.02
2022-09-26T13:08:15.526Z,9.02
2022-09-26T13:11:07.472Z,8.70
2022-09-26T13:14:12.369Z,9.30
2022-09-26T13:16:45.361Z,9.73
2022-09-26T13:19:35.940Z,10.52
2022-09-26T13:22:12.684Z,10.70
2022-09-26T13:24:54.963Z,9.32
2022-09-26T13:27:29.988Z,10.18
2022-09-26T13:30:08.931Z,12.43
2022-09-26T13:32:51.387Z,8.18
2022-09-26T13:35:27.850Z,8.07
2022-09-26T13:38:16.003Z,8.93
2022-09-26T13:41:26.262Z,9.93
2022-09-26T13:44:12.226Z,9.10
2022-09-26T13:47:19.615Z,9.07
2022-09-26T13:49:55.685Z,7.80
2022-09-26T13:52:35.286Z,9.60
2022-09-26T13:55:19.890Z,8.75
2022-09-26T13:58:04.201Z,9.70
2022-09-26T14:00:31.569Z,8.82
2022-09-26T14:03:13.696Z,6.68
2022-09-26T14:05:47.002Z,8.65
2022-09-26T14:08:51.824Z,8.07
2022-09-26T14:11:19.103Z,7.15
2022-09-26T14:14:09.055Z,8.07
2022-09-26T14:16:37.036Z,8.93
2022-09-26T14:19:10.061Z,6.00
2022-09-26T14:22:00.325Z,7.97
2022-09-26T14:24:36.694Z,5.68
2022-09-26T14:27:10.152Z,6.95
2022-09-26T14:29:42.329Z,9.68
2022-09-26T14:32:12.559Z,6.45
2022-09-26T14:34:53.278Z,5.45
2022-09-26T14:37:25.586Z,6.78
2022-09-26T14:40:05.078Z,2.77
2022-09-26T14:42:56.671Z,1.92
2022-09-26T14:45:27.922Z,3.58
2022-09-26T14:48:17.546Z,2.67
2022-09-26T14:50:55.591Z,2.22
2022-09-26T14:53:42.066Z,2.95
2022-09-26T14:56:14.909Z,6.03
2022-09-26T14:58:42.384Z,5.25
2022-09-26T15:01:28.397Z,7.43
2022-09-26T15:04:21.957Z,3.70
2022-09-26T15:07:00.385Z,5.35
2022-09-26T15:09:40.746Z,3.33
2022-09-26T15:12:28.574Z,6.47
2022-09-26T15:15:14.313Z,6.13
2022-09-26T15:17:53.786Z,4.20
2022-09-26T15:20:24.341Z,2.80
2022-09-26T15:22:57.274Z,2.88
2022-09-26T15:25:33.433Z,3.95
2022-09-26T15:28:06.611Z,4.72
2022-09-26T15:33:06.042Z,4.60
2022-09-26T15:35:37.828Z,5.40
2022-09-26T15:38:13.021Z,3.97
2022-09-26T15:40:40.565Z,7.88
2022-09-26T15:43:34.591Z,4.05
2022-09-26T15:46:07.260Z,4.10
2022-09-26T15:48:44.236Z,3.72
2022-09-26T15:51:24.046Z,4.68
2022-09-26T15:54:46.294Z,7.07
2022-09-26T15:57:13.981Z,4.22
2022-09-26T15:59:44.481Z,4.00
2022-09-26T16:02:30.397Z,2.70
2022-09-26T16:04:59.019Z,3.15
2022-09-26T16:07:30.683Z,6.47
2022-09-26T16:09:59.020Z,2.83
2022-09-26T16:12:31.901Z,2.67
2022-09-26T16:15:05.998Z,3.75
2022-09-26T16:17:49.561Z,5.28
2022-09-26T16:20:17.164Z,2.60
2022-09-26T16:23:07.547Z,3.67
2022-09-26T16:25:48.546Z,4.18
2022-09-26T16:28:17.750Z,4.90
2022-09-26T16:30:58.958Z,6.53
2022-09-26T16:33:26.405Z,4.30
2022-09-26T16:35:54.277Z,6.68
2022-09-26T16:38:56.844Z,5.03
2022-09-26T16:42:08.597Z,7.57
2022-09-26T16:44:41.135Z,9.27
2022-09-26T16:47:35.316Z,6.07
2022-09-26T16:50:21.752Z,7.07
2022-09-26T16:52:49.234Z,7.80
2022-09-26T16:55:16.825Z,4.80
2022-09-26T16:58:08.914Z,4.90
2022-09-26T17:01:05.801Z,5.03
2022-09-26T17:03:33.386Z,5.55
2022-09-26T17:06:00.929Z,6.38
2022-09-26T17:08:28.723Z,4.68
2022-09-26T17:11:06.002Z,8.80
2022-09-26T17:13:35.558Z,7.10
2022-09-26T17:16:04.091Z,6.82
2022-09-26T17:18:33.229Z,6.90
2022-09-26T17:21:02.218Z,9.90
2022-09-26T17:23:49.557Z,5.80
2022-09-26T17:26:21.784Z,6.97
2022-09-26T17:28:51.013Z,12.50
2022-09-26T17:31:20.085Z,9.77
2022-09-26T17:33:49.975Z,8.23
2022-09-26T17:36:30.341Z,9.13
2022-09-26T17:39:00.095Z,10.15
2022-09-26T17:41:29.851Z,8.55
2022-09-26T17:44:00.473Z,10.00
2022-09-26T17:46:28.898Z,6.82
2022-09-26T17:48:58.293Z,9.50
2022-09-26T17:51:25.898Z,8.40
2022-09-26T17:53:57.352Z,7.45
2022-09-26T17:56:26.617Z,9.88
2022-09-26T17:58:54.346Z,8.77
2022-09-26T18:01:33.494Z,10.27
2022-09-26T18:04:06.227Z,6.93
2022-09-26T18:06:36.337Z,10.30
2022-09-26T18:09:13.897Z,9.55
2022-09-26T18:12:05.001Z,11.35
2022-09-26T18:14:38.646Z,8.50
2022-09-26T18:17:06.110Z,11.60
2022-09-26T18:19:50.653Z,8.70
2022-09-26T18:22:34.602Z,10.55
2022-09-26T18:25:08.362Z,9.07
2022-09-26T18:27:41.954Z,9.32
2022-09-26T18:30:15.954Z,11.10
2022-09-26T18:32:48.082Z,10.25
2022-09-26T18:35:19.762Z,9.48
2022-09-26T18:37:47.150Z,11.73
2022-09-26T18:40:16.938Z,9.45
2022-09-26T18:42:45.241Z,8.27
2022-09-26T18:45:26.723Z,8.55
2022-09-26T18:47:54.430Z,20.63
2022-09-26T18:50:27.388Z,16.95
2022-09-26T19:01:18.820Z,10.88
2022-09-26T19:07:44.991Z,13.18
2022-09-26T19:10:35.733Z,9.43
2022-09-26T19:13:04.854Z,9.63
2022-09-26T19:15:36.343Z,8.80
2022-09-26T19:18:23.972Z,6.72
2022-09-26T19:20:51.743Z,7.90
2022-09-26T19:23:19.654Z,6.30
2022-09-26T19:25:47.371Z,6.22
2022-09-26T19:28:45.106Z,6.82
2022-09-26T19:31:15.092Z,6.60
2022-09-26T19:33:46.668Z,5.22
2022-09-26T19:36:17.355Z,6.40
2022-09-26T19:38:44.942Z,6.13
2022-09-26T19:41:14.503Z,9.07
2022-09-26T19:43:42.201Z,6.60
2022-09-26T19:46:15.898Z,7.93
2022-09-26T19:48:43.441Z,7.32
2022-09-26T19:51:14.802Z,7.18
2022-09-26T19:53:42.407Z,13.25
2022-09-26T19:56:10.210Z,24.55
2022-09-26T19:58:37.608Z,29.73
2022-09-26T20:01:19.169Z,10.50
2022-09-26T20:07:00.665Z,7.45
2022-09-26T20:09:28.850Z,6.05
2022-09-26T20:12:35.514Z,11.15
2022-09-26T20:15:03.614Z,6.65
2022-09-26T20:18:14.256Z,6.57
2022-09-26T20:20:42.174Z,8.40
2022-09-26T20:26:53.628Z,9.00
2022-09-26T20:29:22.501Z,8.48
2022-09-26T20:31:49.897Z,9.32
2022-09-26T20:34:17.670Z,8.93
2022-09-26T20:36:48.867Z,11.02
2022-09-26T20:39:24.989Z,11.20
2022-09-26T20:41:52.666Z,10.52
2022-09-26T20:44:46.632Z,10.30
2022-09-26T20:47:21.901Z,10.30
2022-09-26T20:50:27.100Z,8.20
2022-09-26T20:53:21.458Z,9.98
2022-09-26T20:55:49.988Z,13.82
2022-09-26T20:58:17.394Z,14.40
2022-09-26T21:00:45.438Z,15.30
2022-09-26T21:03:19.043Z,12.65
2022-09-26T21:05:48.525Z,17.33
2022-09-26T21:08:31.353Z,14.23
2022-09-26T21:11:00.482Z,15.63
2022-09-26T21:13:27.951Z,14.07
2022-09-26T21:15:59.115Z,13.70
2022-09-26T21:18:30.645Z,16.42
2022-09-26T21:21:05.790Z,11.70
2022-09-26T21:24:00.184Z,17.35
2022-09-26T21:26:35.457Z,27.60
2022-09-26T21:29:06.410Z,17.90
2022-09-26T21:31:37.474Z,11.10
2022-09-26T21:34:34.504Z,14.57
2022-09-26T21:37:08.741Z,11.05
2022-09-26T21:39:52.596Z,7.35
2022-09-26T21:42:21.584Z,7.60
2022-09-26T21:45:16.612Z,8.15
2022-09-26T21:48:06.979Z,4.40
2022-09-26T21:50:34.926Z,6.97
2022-09-26T21:53:26.406Z,1.75
2022-09-26T21:56:04.996Z,1.90
2022-09-26T21:58:39.088Z,1.42
2022-09-26T22:01:10.686Z,2.10
2022-09-26T22:03:38.327Z,3.15
2022-09-26T22:06:10.136Z,1.70
2022-09-26T22:08:39.400Z,1.17
2022-09-26T22:11:11.383Z,1.42
2022-09-26T22:13:45.002Z,0.82
2022-09-26T22:16:45.241Z,1.13
2022-09-26T22:19:14.989Z,0.73
2022-09-26T22:22:09.037Z,1.50
2022-09-26T22:24:37.308Z,0.65
2022-09-26T22:27:14.106Z,2.83
2022-09-26T22:29:44.084Z,1.35
2022-09-26T22:32:16.209Z,0.77
2022-09-26T22:34:45.411Z,0.88
2022-09-26T22:37:12.825Z,1.65
2022-09-26T22:39:40.293Z,0.77
2022-09-26T22:42:28.125Z,1.70
2022-09-26T22:44:59.678Z,3.03
2022-09-26T22:54:39.901Z,0.52
2022-09-26T22:57:07.797Z,1.48
2022-09-26T22:59:55.256Z,0.95
2022-09-26T23:02:23.002Z,0.88
2022-09-26T23:04:53.117Z,2.08
2022-09-26T23:07:31.847Z,1.83
2022-09-26T23:18:23.919Z,3.35
2022-09-26T23:33:33.218Z,4.93
2022-09-26T23:36:12.942Z,4.07
2022-09-26T23:39:07.641Z,3.60
2022-09-26T23:44:20.765Z,2.63
2022-09-26T23:46:48.203Z,3.60
2022-09-26T23:49:18.643Z,2.72
2022-09-26T23:51:55.334Z,2.35
2022-09-26T23:54:25.957Z,3.08
2022-09-26T23:57:02.233Z,3.38
2022-09-26T23:59:29.679Z,2.42
